createdAt,value
2016-03-20T00:00:20.414Z,16.02
2016-03-20T00:01:20.417Z,15.92
2016-03-20T00:02:20.435Z,15.92
2016-03-20T00:03:20.438Z,16.21
2016-03-20T00:04:20.440Z,15.93
2016-03-20T00:05:20.443Z,15.93
2016-03-20T00:06:20.445Z,16.22
2016-03-20T00:07:20.464Z,15.55
2016-03-20T00:08:20.466Z,16.12
2016-03-20T00:09:20.469Z,15.93
2016-03-20T00:10:20.472Z,16.11
2016-03-20T00:11:20.475Z,15.55
2016-03-20T00:12:20.477Z,16.02
2016-03-20T00:13:20.496Z,16.31
2016-03-20T00:14:20.498Z,16.21
2016-03-20T00:15:20.502Z,15.73
2016-03-20T00:16:20.519Z,16.03
2016-03-20T00:17:20.522Z,15.73
2016-03-20T00:18:20.524Z,15.73
2016-03-20T00:19:20.544Z,15.64
2016-03-20T00:20:20.546Z,15.53
2016-03-20T00:21:20.549Z,15.93
2016-03-20T00:22:20.551Z,16.11
2016-03-20T00:23:20.554Z,15.53
2016-03-20T00:24:20.556Z,16.12
2016-03-20T00:25:20.559Z,15.83
2016-03-20T00:26:20.578Z,16.31
2016-03-20T00:27:20.581Z,15.63
2016-03-20T00:28:20.583Z,16.02
2016-03-20T00:29:20.601Z,15.73
2016-03-20T00:30:20.604Z,16.41
2016-03-20T00:31:20.606Z,15.64
2016-03-20T00:32:20.609Z,15.63
2016-03-20T00:33:20.628Z,15.73
2016-03-20T00:34:20.645Z,15.73
2016-03-20T00:35:20.633Z,15.73
2016-03-20T00:36:20.636Z,15.63
2016-03-20T00:37:20.639Z,15.73
2016-03-20T00:38:20.656Z,15.63
2016-03-20T00:39:20.659Z,15.53
2016-03-20T00:40:20.662Z,15.63
2016-03-20T00:41:20.665Z,15.92
2016-03-20T00:42:20.683Z,15.73
2016-03-20T00:43:20.670Z,15.73
2016-03-20T00:44:20.688Z,15.73
2016-03-20T00:45:20.691Z,15.64
2016-03-20T00:46:20.694Z,15.73
2016-03-20T00:47:20.696Z,16.31
2016-03-20T00:48:20.716Z,15.73
2016-03-20T00:49:20.718Z,15.73
2016-03-20T00:50:20.721Z,15.53
2016-03-20T00:51:20.723Z,15.83
2016-03-20T00:52:20.726Z,15.63
2016-03-20T00:53:20.759Z,15.73
2016-03-20T00:54:20.746Z,15.83
2016-03-20T00:55:20.765Z,15.73
2016-03-20T00:56:20.768Z,15.73
2016-03-20T00:57:20.770Z,15.73
2016-03-20T00:58:20.773Z,15.92
2016-03-20T00:59:20.776Z,15.73
2016-03-20T01:00:20.779Z,15.73
2016-03-20T01:01:20.781Z,15.53
2016-03-20T01:02:20.800Z,15.83
2016-03-20T01:03:20.803Z,15.83
2016-03-20T01:04:20.805Z,15.73
2016-03-20T01:05:20.808Z,15.73
2016-03-20T01:06:20.826Z,16.02
2016-03-20T01:07:20.829Z,15.55
2016-03-20T01:08:20.831Z,15.73
2016-03-20T01:09:20.833Z,15.53
2016-03-20T01:10:20.837Z,15.83
2016-03-20T01:11:20.855Z,15.63
2016-03-20T01:12:20.842Z,15.73
2016-03-20T01:13:20.860Z,15.73
2016-03-20T01:14:20.863Z,15.92
2016-03-20T01:15:20.881Z,15.73
2016-03-20T01:16:20.915Z,15.73
2016-03-20T01:17:20.886Z,15.92
2016-03-20T01:18:20.889Z,15.73
2016-03-20T01:19:20.908Z,15.92
2016-03-20T01:20:20.754Z,15.63
2016-03-20T01:21:20.913Z,16.02
2016-03-20T01:22:20.915Z,16.02
2016-03-20T01:23:20.918Z,15.92
2016-03-20T01:24:20.921Z,15.53
2016-03-20T01:25:20.940Z,16.02
2016-03-20T01:26:20.958Z,15.53
2016-03-20T01:27:20.945Z,15.73
2016-03-20T01:28:20.963Z,15.63
2016-03-20T01:29:20.966Z,15.73
2016-03-20T01:30:20.969Z,15.73
2016-03-20T01:31:21.003Z,15.83
2016-03-20T01:32:20.974Z,16.21
2016-03-20T01:33:20.977Z,16.02
2016-03-20T01:34:21.011Z,16.02
2016-03-20T01:35:20.997Z,15.92
2016-03-20T01:36:21.000Z,16.02
2016-03-20T01:37:21.003Z,15.73
2016-03-20T01:38:21.006Z,15.92
2016-03-20T01:39:21.039Z,15.73
2016-03-20T01:40:21.028Z,15.63
2016-03-20T01:41:21.045Z,15.83
2016-03-20T01:42:21.033Z,15.92
2016-03-20T01:43:21.050Z,15.92
2016-03-20T01:44:21.053Z,16.02
2016-03-20T01:45:21.055Z,15.63
2016-03-20T01:46:21.074Z,16.02
2016-03-20T01:47:21.077Z,16.02
2016-03-20T01:48:21.094Z,16.02
2016-03-20T01:49:21.082Z,15.92
2016-03-20T01:50:21.085Z,15.92
2016-03-20T01:51:21.088Z,15.83
2016-03-20T01:52:21.106Z,15.73
2016-03-20T01:53:21.108Z,15.53
2016-03-20T01:54:21.111Z,15.53
2016-03-20T01:55:21.130Z,15.53
2016-03-20T01:56:21.132Z,15.92
2016-03-20T01:57:21.134Z,15.53
2016-03-20T01:58:21.154Z,15.53
2016-03-20T01:59:21.140Z,16.02
2016-03-20T02:00:21.159Z,15.92
2016-03-20T02:01:21.161Z,15.92
2016-03-20T02:02:21.164Z,15.92
2016-03-20T02:03:21.182Z,15.44
2016-03-20T02:04:21.170Z,16.02
2016-03-20T02:05:21.188Z,15.73
2016-03-20T02:06:21.190Z,15.83
2016-03-20T02:07:21.192Z,15.44
2016-03-20T02:08:21.211Z,15.63
2016-03-20T02:09:21.198Z,15.34
2016-03-20T02:10:21.217Z,16.02
2016-03-20T02:11:21.220Z,15.92
2016-03-20T02:12:21.223Z,15.83
2016-03-20T02:13:21.225Z,15.92
2016-03-20T02:14:21.228Z,15.92
2016-03-20T02:15:21.246Z,15.63
2016-03-20T02:16:21.249Z,15.53
2016-03-20T02:17:21.252Z,15.34
2016-03-20T02:18:21.254Z,15.44
2016-03-20T02:19:21.257Z,15.83
2016-03-20T02:20:21.118Z,15.83
2016-03-20T02:21:21.277Z,15.63
2016-03-20T02:22:21.280Z,15.92
2016-03-20T02:23:21.299Z,15.63
2016-03-20T02:24:21.302Z,15.44
2016-03-20T02:25:21.319Z,15.34
2016-03-20T02:26:21.307Z,15.44
2016-03-20T02:27:21.325Z,15.44
2016-03-20T02:28:21.343Z,15.92
2016-03-20T02:29:21.330Z,16.02
2016-03-20T02:30:21.333Z,15.44
2016-03-20T02:31:21.351Z,15.53
2016-03-20T02:32:21.354Z,15.73
2016-03-20T02:33:21.341Z,15.44
2016-03-20T02:34:21.359Z,15.73
2016-03-20T02:35:21.393Z,15.53
2016-03-20T02:36:21.381Z,15.44
2016-03-20T02:37:21.384Z,15.44
2016-03-20T02:38:21.386Z,15.92
2016-03-20T02:39:21.389Z,15.44
2016-03-20T02:40:21.407Z,15.83
2016-03-20T02:41:21.394Z,15.44
2016-03-20T02:42:21.412Z,15.53
2016-03-20T02:43:21.414Z,15.73
2016-03-20T02:44:21.417Z,16.02
2016-03-20T02:45:21.436Z,15.92
2016-03-20T02:46:21.438Z,15.92
2016-03-20T02:47:21.442Z,16.11
2016-03-20T02:48:21.444Z,16.02
2016-03-20T02:49:21.447Z,15.44
2016-03-20T02:50:21.449Z,15.44
2016-03-20T02:51:21.452Z,15.92
2016-03-20T02:52:21.471Z,15.92
2016-03-20T02:53:21.473Z,15.92
2016-03-20T02:54:21.476Z,15.92
2016-03-20T02:55:21.494Z,15.44
2016-03-20T02:56:21.497Z,15.83
2016-03-20T02:57:21.499Z,15.53
2016-03-20T02:58:21.502Z,15.44
2016-03-20T02:59:21.504Z,15.34
2016-03-20T03:00:21.508Z,15.73
2016-03-20T03:01:21.557Z,15.63
2016-03-20T03:02:21.528Z,15.92
2016-03-20T03:03:21.532Z,15.92
2016-03-20T03:04:21.534Z,15.44
2016-03-20T03:05:21.552Z,15.44
2016-03-20T03:06:21.554Z,15.92
2016-03-20T03:07:21.564Z,15.83
2016-03-20T03:08:21.567Z,15.63
2016-03-20T03:09:21.570Z,15.44
2016-03-20T03:10:21.572Z,15.44
2016-03-20T03:11:21.575Z,15.92
2016-03-20T03:12:21.578Z,15.83
2016-03-20T03:13:21.596Z,15.73
2016-03-20T03:14:21.583Z,15.92
2016-03-20T03:15:21.617Z,16.02
2016-03-20T03:16:21.635Z,15.44
2016-03-20T03:17:21.622Z,15.63
2016-03-20T03:18:21.625Z,15.63
2016-03-20T03:19:21.627Z,15.73
2016-03-20T03:20:21.630Z,15.44
2016-03-20T03:21:21.633Z,15.53
2016-03-20T03:22:21.651Z,15.44
2016-03-20T03:23:21.654Z,15.53
2016-03-20T03:24:21.657Z,15.44
2016-03-20T03:25:21.675Z,15.44
2016-03-20T03:26:21.679Z,15.44
2016-03-20T03:27:21.681Z,15.53
2016-03-20T03:28:21.684Z,15.44
2016-03-20T03:29:21.686Z,15.53
2016-03-20T03:30:21.704Z,15.34
2016-03-20T03:31:21.706Z,15.44
2016-03-20T03:32:21.757Z,15.44
2016-03-20T03:33:21.712Z,15.53
2016-03-20T03:34:21.731Z,15.44
2016-03-20T03:35:21.733Z,15.44
2016-03-20T03:36:21.736Z,15.53
2016-03-20T03:37:21.739Z,15.73
2016-03-20T03:38:21.742Z,15.53
2016-03-20T03:39:21.760Z,15.53
2016-03-20T03:40:21.746Z,15.63
2016-03-20T03:41:21.766Z,15.53
2016-03-20T03:42:21.768Z,15.73
2016-03-20T03:43:21.771Z,15.73
2016-03-20T03:44:21.788Z,15.44
2016-03-20T03:45:21.791Z,15.73
2016-03-20T03:46:21.872Z,15.92
2016-03-20T03:47:21.797Z,15.53
2016-03-20T03:48:21.799Z,15.53
2016-03-20T03:49:21.802Z,15.73
2016-03-20T03:50:21.821Z,15.73
2016-03-20T03:51:21.823Z,15.63
2016-03-20T03:52:21.827Z,16.02
2016-03-20T03:53:21.844Z,15.53
2016-03-20T03:54:21.847Z,15.63
2016-03-20T03:55:21.849Z,15.92
2016-03-20T03:56:21.852Z,15.44
2016-03-20T03:57:21.871Z,15.44
2016-03-20T03:58:21.857Z,15.63
2016-03-20T03:59:21.876Z,15.44
2016-03-20T04:00:21.878Z,15.81
2016-03-20T04:01:21.882Z,15.73
2016-03-20T04:02:21.884Z,15.72
2016-03-20T04:03:21.892Z,15.73
2016-03-20T04:04:21.894Z,15.53
2016-03-20T04:05:21.913Z,15.44
2016-03-20T04:06:21.916Z,15.34
2016-03-20T04:07:21.918Z,15.63
2016-03-20T04:08:21.921Z,15.44
2016-03-20T04:09:21.938Z,15.83
2016-03-20T04:10:21.941Z,15.53
2016-03-20T04:11:21.930Z,15.63
2016-03-20T04:12:21.947Z,15.73
2016-03-20T04:13:21.949Z,15.53
2016-03-20T04:14:21.953Z,15.44
2016-03-20T04:15:21.971Z,15.44
2016-03-20T04:16:21.973Z,15.44
2016-03-20T04:17:21.976Z,15.44
2016-03-20T04:18:21.979Z,15.53
2016-03-20T04:19:21.981Z,15.53
2016-03-20T04:20:22.001Z,15.34
2016-03-20T04:21:22.003Z,15.53
2016-03-20T04:22:22.005Z,15.44
2016-03-20T04:23:22.024Z,15.44
2016-03-20T04:24:22.026Z,15.44
2016-03-20T04:25:22.028Z,15.44
2016-03-20T04:26:22.032Z,15.34
2016-03-20T04:27:22.024Z,15.63
2016-03-20T04:28:22.014Z,15.63
2016-03-20T04:29:22.004Z,15.53
2016-03-20T04:30:22.010Z,15.53
2016-03-20T04:31:22.000Z,15.92
2016-03-20T04:32:21.996Z,15.73
2016-03-20T04:33:21.994Z,15.73
2016-03-20T04:34:22.008Z,15.83
2016-03-20T04:35:22.006Z,15.92
2016-03-20T04:36:22.020Z,15.53
2016-03-20T04:37:22.021Z,15.92
2016-03-20T04:38:22.006Z,15.63
2016-03-20T04:39:22.023Z,15.63
2016-03-20T04:40:22.024Z,15.53
2016-03-20T04:41:22.025Z,15.73
2016-03-20T04:42:22.027Z,15.53
2016-03-20T04:43:22.045Z,15.53
2016-03-20T04:44:22.047Z,15.53
2016-03-20T04:45:22.048Z,15.44
2016-03-20T04:46:22.050Z,15.53
2016-03-20T04:47:22.068Z,15.91
2016-03-20T04:48:22.071Z,15.92
2016-03-20T04:49:22.073Z,15.73
2016-03-20T04:50:22.076Z,15.73
2016-03-20T04:51:22.079Z,15.83
2016-03-20T04:52:22.097Z,15.73
2016-03-20T04:53:22.100Z,15.73
2016-03-20T04:54:22.103Z,15.63
2016-03-20T04:55:22.121Z,15.83
2016-03-20T04:56:22.109Z,15.92
2016-03-20T04:57:22.111Z,15.63
2016-03-20T04:58:22.129Z,15.73
2016-03-20T04:59:22.133Z,15.83
2016-03-20T05:00:22.135Z,15.63
2016-03-20T05:01:22.152Z,15.73
2016-03-20T05:02:22.156Z,15.92
2016-03-20T05:03:22.158Z,15.73
2016-03-20T05:04:22.161Z,15.53
2016-03-20T05:05:22.164Z,15.73
2016-03-20T05:06:22.166Z,15.25
2016-03-20T05:07:22.184Z,15.83
2016-03-20T05:08:22.188Z,15.92
2016-03-20T05:09:22.190Z,15.63
2016-03-20T05:10:22.192Z,15.73
2016-03-20T05:11:22.211Z,15.83
2016-03-20T05:12:22.229Z,15.83
2016-03-20T05:13:22.216Z,15.73
2016-03-20T05:14:22.219Z,15.63
2016-03-20T05:15:22.237Z,15.92
2016-03-20T05:16:22.256Z,15.63
2016-03-20T05:17:22.243Z,15.63
2016-03-20T05:18:22.245Z,15.44
2016-03-20T05:19:22.248Z,15.83
2016-03-20T05:20:22.251Z,15.73
2016-03-20T05:21:22.270Z,15.92
2016-03-20T05:22:22.272Z,15.73
2016-03-20T05:23:22.275Z,15.73
2016-03-20T05:24:22.278Z,15.53
2016-03-20T05:25:22.280Z,15.92
2016-03-20T05:26:22.298Z,15.53
2016-03-20T05:27:22.300Z,15.92
2016-03-20T05:28:22.303Z,15.73
2016-03-20T05:29:22.321Z,15.92
2016-03-20T05:30:22.309Z,15.92
2016-03-20T05:31:22.327Z,15.73
2016-03-20T05:32:22.330Z,15.73
2016-03-20T05:33:22.333Z,15.63
2016-03-20T05:34:22.335Z,15.81
2016-03-20T05:35:22.354Z,15.73
2016-03-20T05:36:22.357Z,15.73
2016-03-20T05:37:22.359Z,15.73
2016-03-20T05:38:22.362Z,15.44
2016-03-20T05:39:22.365Z,15.92
2016-03-20T05:40:22.382Z,15.92
2016-03-20T05:41:22.386Z,15.63
2016-03-20T05:42:22.373Z,15.63
2016-03-20T05:43:22.390Z,15.73
2016-03-20T05:44:22.410Z,15.92
2016-03-20T05:45:22.396Z,15.73
2016-03-20T05:46:22.414Z,15.63
2016-03-20T05:47:22.417Z,15.63
2016-03-20T05:48:22.420Z,15.63
2016-03-20T05:49:22.423Z,15.53
2016-03-20T05:50:22.441Z,15.63
2016-03-20T05:51:22.443Z,15.73
2016-03-20T05:52:22.446Z,15.53
2016-03-20T05:53:22.449Z,15.63
2016-03-20T05:54:22.451Z,15.63
2016-03-20T05:55:22.469Z,15.92
2016-03-20T05:56:22.472Z,15.63
2016-03-20T05:57:22.475Z,15.73
2016-03-20T05:58:22.478Z,15.63
2016-03-20T05:59:22.497Z,15.53
2016-03-20T06:00:22.483Z,15.63
2016-03-20T06:01:22.502Z,15.63
2016-03-20T06:02:22.505Z,15.53
2016-03-20T06:03:22.507Z,15.63
2016-03-20T06:04:22.510Z,15.63
2016-03-20T06:05:22.527Z,15.44
2016-03-20T06:06:22.531Z,15.53
2016-03-20T06:07:22.533Z,15.53
2016-03-20T06:08:22.552Z,15.63
2016-03-20T06:09:22.555Z,15.53
2016-03-20T06:10:22.541Z,15.53
2016-03-20T06:11:22.560Z,15.34
2016-03-20T06:12:22.562Z,15.63
2016-03-20T06:13:22.565Z,15.34
2016-03-20T06:14:22.583Z,15.63
2016-03-20T06:15:22.587Z,15.25
2016-03-20T06:16:22.589Z,15.63
2016-03-20T06:17:22.592Z,15.73
2016-03-20T06:18:22.610Z,15.63
2016-03-20T06:19:22.643Z,15.53
2016-03-20T06:20:22.615Z,15.44
2016-03-20T06:21:22.634Z,15.53
2016-03-20T06:22:22.620Z,15.63
2016-03-20T06:23:22.623Z,15.53
2016-03-20T06:24:22.641Z,15.44
2016-03-20T06:25:22.644Z,15.63
2016-03-20T06:26:22.662Z,15.44
2016-03-20T06:27:22.650Z,15.83
2016-03-20T06:28:22.652Z,15.63
2016-03-20T06:29:22.670Z,15.63
2016-03-20T06:30:22.673Z,15.63
2016-03-20T06:31:22.676Z,15.53
2016-03-20T06:32:22.679Z,15.34
2016-03-20T06:33:22.697Z,15.44
2016-03-20T06:34:22.700Z,15.44
2016-03-20T06:35:22.703Z,15.63
2016-03-20T06:36:22.721Z,15.63
2016-03-20T06:37:22.707Z,15.63
2016-03-20T06:38:22.710Z,15.92
2016-03-20T06:39:22.729Z,15.63
2016-03-20T06:40:22.732Z,15.53
2016-03-20T06:41:22.734Z,15.44
2016-03-20T06:42:22.752Z,15.73
2016-03-20T06:43:22.740Z,15.92
2016-03-20T06:44:22.758Z,15.73
2016-03-20T06:45:22.760Z,15.73
2016-03-20T06:46:22.763Z,15.73
2016-03-20T06:47:22.766Z,15.73
2016-03-20T06:48:22.785Z,15.83
2016-03-20T06:49:22.787Z,15.83
2016-03-20T06:50:22.789Z,15.73
2016-03-20T06:51:22.809Z,15.92
2016-03-20T06:52:22.795Z,15.73
2016-03-20T06:53:22.814Z,15.73
2016-03-20T06:54:22.817Z,15.53
2016-03-20T06:55:22.819Z,15.92
2016-03-20T06:56:22.822Z,15.83
2016-03-20T06:57:22.825Z,15.83
2016-03-20T06:58:22.842Z,15.73
2016-03-20T06:59:22.845Z,15.83
2016-03-20T07:00:22.848Z,15.92
2016-03-20T07:01:22.866Z,15.53
2016-03-20T07:02:22.869Z,15.63
2016-03-20T07:03:22.872Z,15.53
2016-03-20T07:04:22.874Z,15.83
2016-03-20T07:05:22.877Z,15.83
2016-03-20T07:06:22.895Z,15.83
2016-03-20T07:07:22.882Z,15.63
2016-03-20T07:08:22.900Z,15.83
2016-03-20T07:09:22.903Z,15.92
2016-03-20T07:10:22.905Z,15.92
2016-03-20T07:11:22.956Z,15.63
2016-03-20T07:12:22.911Z,15.73
2016-03-20T07:13:22.930Z,15.73
2016-03-20T07:14:22.932Z,15.73
2016-03-20T07:15:22.935Z,15.73
2016-03-20T07:16:22.954Z,15.92
2016-03-20T07:17:22.940Z,15.63
2016-03-20T07:18:22.959Z,15.53
2016-03-20T07:19:22.961Z,15.53
2016-03-20T07:20:23.012Z,15.34
2016-03-20T07:21:22.982Z,15.44
2016-03-20T07:22:22.985Z,15.92
2016-03-20T07:23:22.987Z,15.83
2016-03-20T07:24:22.990Z,16.02
2016-03-20T07:25:22.993Z,16.02
2016-03-20T07:26:23.011Z,15.92
2016-03-20T07:27:23.014Z,16.02
2016-03-20T07:28:23.017Z,15.92
2016-03-20T07:29:23.035Z,15.83
2016-03-20T07:30:23.022Z,15.53
2016-03-20T07:31:23.041Z,16.02
2016-03-20T07:32:23.043Z,16.02
2016-03-20T07:33:23.062Z,15.92
2016-03-20T07:34:23.049Z,15.92
2016-03-20T07:35:23.051Z,15.53
2016-03-20T07:36:23.070Z,15.63
2016-03-20T07:37:23.072Z,15.63
2016-03-20T07:38:23.077Z,15.73
2016-03-20T07:39:23.081Z,16.02
2016-03-20T07:40:23.083Z,15.73
2016-03-20T07:41:23.132Z,15.83
2016-03-20T07:42:23.105Z,15.83
2016-03-20T07:43:23.122Z,15.73
2016-03-20T07:44:23.110Z,15.53
2016-03-20T07:45:23.128Z,16.02
2016-03-20T07:46:23.130Z,16.02
2016-03-20T07:47:23.133Z,16.02
2016-03-20T07:48:23.136Z,15.83
2016-03-20T07:49:23.138Z,15.73
2016-03-20T07:50:23.141Z,15.63
2016-03-20T07:51:23.160Z,15.63
2016-03-20T07:52:23.162Z,15.34
2016-03-20T07:53:23.166Z,15.53
2016-03-20T07:54:23.168Z,15.53
2016-03-20T07:55:23.186Z,15.44
2016-03-20T07:56:23.190Z,15.53
2016-03-20T07:57:23.192Z,15.83
2016-03-20T07:58:23.195Z,15.63
2016-03-20T07:59:23.197Z,15.63
2016-03-20T08:00:23.215Z,15.73
2016-03-20T08:01:23.217Z,15.73
2016-03-20T08:02:23.237Z,15.83
2016-03-20T08:03:23.223Z,15.83
2016-03-20T08:04:23.225Z,15.73
2016-03-20T08:05:23.245Z,15.73
2016-03-20T08:06:23.247Z,15.83
2016-03-20T08:07:23.265Z,15.73
2016-03-20T08:08:23.252Z,15.63
2016-03-20T08:09:23.255Z,15.73
2016-03-20T08:10:23.273Z,15.92
2016-03-20T08:11:23.275Z,15.73
2016-03-20T08:12:23.278Z,15.63
2016-03-20T08:13:23.281Z,15.53
2016-03-20T08:14:23.300Z,15.73
2016-03-20T08:15:23.286Z,15.63
2016-03-20T08:16:23.305Z,15.53
2016-03-20T08:17:23.307Z,15.92
2016-03-20T08:18:23.310Z,15.44
2016-03-20T08:19:23.344Z,15.73
2016-03-20T08:20:23.316Z,15.63
2016-03-20T08:21:23.349Z,15.73
2016-03-20T08:22:23.337Z,15.63
2016-03-20T08:23:23.355Z,15.53
2016-03-20T08:24:23.342Z,15.34
2016-03-20T08:25:23.376Z,15.35
2016-03-20T08:26:23.363Z,14.67
2016-03-20T08:27:23.365Z,14.68
2016-03-20T08:28:23.385Z,14.68
2016-03-20T08:29:23.371Z,15.06
2016-03-20T08:30:23.390Z,15.44
2016-03-20T08:31:23.392Z,15.53
2016-03-20T08:32:23.411Z,15.73
2016-03-20T08:33:23.414Z,15.73
2016-03-20T08:34:23.416Z,15.73
2016-03-20T08:35:23.419Z,15.73
2016-03-20T08:36:23.422Z,15.53
2016-03-20T08:37:23.440Z,15.44
2016-03-20T08:38:23.442Z,15.63
2016-03-20T08:39:23.445Z,15.44
2016-03-20T08:40:23.464Z,15.53
2016-03-20T08:41:23.450Z,15.53
2016-03-20T08:42:23.469Z,15.92
2016-03-20T08:43:23.471Z,15.92
2016-03-20T08:44:23.474Z,15.73
2016-03-20T08:45:23.492Z,15.73
2016-03-20T08:46:23.480Z,15.92
2016-03-20T08:47:23.529Z,15.44
2016-03-20T08:48:23.344Z,15.44
2016-03-20T08:49:23.503Z,15.92
2016-03-20T08:50:23.505Z,15.92
2016-03-20T08:51:23.524Z,15.73
2016-03-20T08:52:23.527Z,15.83
2016-03-20T08:53:23.529Z,15.73
2016-03-20T08:54:23.376Z,15.73
2016-03-20T08:55:23.566Z,15.83
2016-03-20T08:56:23.538Z,16.02
2016-03-20T08:57:23.556Z,15.53
2016-03-20T08:58:23.574Z,15.63
2016-03-20T08:59:23.562Z,15.44
2016-03-20T09:00:23.579Z,15.73
2016-03-20T09:01:23.614Z,15.63
2016-03-20T09:02:23.584Z,15.92
2016-03-20T09:03:23.588Z,15.73
2016-03-20T09:04:23.590Z,16.02
2016-03-20T09:05:23.592Z,15.72
2016-03-20T09:06:23.611Z,15.63
2016-03-20T09:07:23.614Z,15.92
2016-03-20T09:08:23.617Z,15.73
2016-03-20T09:09:23.619Z,15.83
2016-03-20T09:10:23.622Z,15.73
2016-03-20T09:11:23.641Z,15.63
2016-03-20T09:12:23.644Z,16.02
2016-03-20T09:13:23.646Z,15.73
2016-03-20T09:14:23.649Z,15.73
2016-03-20T09:15:23.652Z,15.83
2016-03-20T09:16:23.669Z,15.63
2016-03-20T09:17:23.672Z,15.73
2016-03-20T09:18:23.675Z,15.83
2016-03-20T09:19:23.693Z,15.91
2016-03-20T09:20:23.696Z,16.39
2016-03-20T09:21:23.699Z,16.49
2016-03-20T09:22:23.701Z,16.49
2016-03-20T09:23:23.719Z,16.01
2016-03-20T09:24:23.722Z,15.81
2016-03-20T09:25:23.724Z,15.91
2016-03-20T09:26:23.727Z,16.11
2016-03-20T09:27:23.746Z,15.83
2016-03-20T09:28:23.748Z,15.73
2016-03-20T09:29:23.768Z,15.81
2016-03-20T09:30:23.754Z,15.73
2016-03-20T09:31:23.756Z,15.92
2016-03-20T09:32:23.760Z,15.92
2016-03-20T09:33:23.778Z,15.92
2016-03-20T09:34:23.780Z,15.83
2016-03-20T09:35:23.783Z,15.73
2016-03-20T09:36:23.786Z,15.83
2016-03-20T09:37:23.789Z,15.83
2016-03-20T09:38:23.792Z,16.02
2016-03-20T09:39:23.809Z,15.92
2016-03-20T09:40:23.812Z,15.83
2016-03-20T09:41:23.815Z,15.73
2016-03-20T09:42:23.817Z,15.83
2016-03-20T09:43:23.835Z,16.5
2016-03-20T09:44:23.839Z,15.83
2016-03-20T09:45:23.841Z,15.92
2016-03-20T09:46:23.844Z,15.83
2016-03-20T09:47:23.863Z,15.83
2016-03-20T09:48:23.849Z,15.92
2016-03-20T09:49:23.868Z,15.92
2016-03-20T09:50:23.871Z,15.92
2016-03-20T09:51:23.874Z,15.92
2016-03-20T09:52:23.876Z,16.41
2016-03-20T09:53:23.894Z,15.92
2016-03-20T09:54:23.897Z,15.83
2016-03-20T09:55:23.915Z,15.83
2016-03-20T09:56:23.902Z,16.41
2016-03-20T09:57:23.905Z,15.92
2016-03-20T09:58:23.923Z,16.41
2016-03-20T09:59:23.926Z,16.41
2016-03-20T10:00:23.928Z,16.5
2016-03-20T10:01:23.931Z,16.5
2016-03-20T10:02:23.809Z,16.79
2016-03-20T10:03:23.937Z,16.79
2016-03-20T10:04:23.954Z,16.49
2016-03-20T10:05:23.957Z,16.69
2016-03-20T10:06:23.960Z,16.39
2016-03-20T10:07:23.978Z,16.39
2016-03-20T10:08:23.997Z,16.31
2016-03-20T10:09:23.983Z,16.78
2016-03-20T10:10:23.987Z,16.78
2016-03-20T10:11:23.989Z,16.5
2016-03-20T10:12:24.008Z,16.5
2016-03-20T10:13:24.011Z,16.41
2016-03-20T10:14:24.028Z,16.6
2016-03-20T10:15:24.016Z,16.69
2016-03-20T10:16:24.033Z,16.69
2016-03-20T10:17:24.036Z,16.59
2016-03-20T10:18:24.039Z,16.6
2016-03-20T10:19:24.041Z,16.6
2016-03-20T10:20:24.061Z,16.69
2016-03-20T10:21:24.063Z,16.69
2016-03-20T10:22:24.066Z,16.78
2016-03-20T10:23:24.069Z,16.69
2016-03-20T10:24:24.071Z,16.69
2016-03-20T10:25:24.074Z,16.49
2016-03-20T10:26:24.093Z,16.11
2016-03-20T10:27:24.095Z,16.21
2016-03-20T10:28:24.098Z,16.39
2016-03-20T10:29:24.101Z,16.89
2016-03-20T10:30:24.135Z,16.02
2016-03-20T10:31:24.121Z,15.81
2016-03-20T10:32:24.140Z,16.21
2016-03-20T10:33:24.127Z,15.83
2016-03-20T10:34:24.145Z,15.83
2016-03-20T10:35:24.148Z,15.92
2016-03-20T10:36:24.150Z,15.83
2016-03-20T10:37:24.154Z,16.11
2016-03-20T10:38:24.156Z,16.11
2016-03-20T10:39:24.158Z,15.83
2016-03-20T10:40:24.176Z,16.02
2016-03-20T10:41:24.179Z,16.02
2016-03-20T10:42:24.181Z,15.73
2016-03-20T10:43:24.184Z,16.11
2016-03-20T10:44:24.203Z,15.92
2016-03-20T10:45:24.206Z,15.92
2016-03-20T10:46:24.208Z,15.92
2016-03-20T10:47:24.211Z,15.92
2016-03-20T10:48:24.230Z,15.92
2016-03-20T10:49:24.232Z,16.21
2016-03-20T10:50:24.235Z,15.73
2016-03-20T10:51:24.238Z,16.11
2016-03-20T10:52:24.240Z,15.83
2016-03-20T10:53:24.259Z,15.83
2016-03-20T10:54:24.261Z,15.92
2016-03-20T10:55:24.263Z,15.92
2016-03-20T10:56:24.266Z,15.92
2016-03-20T10:57:24.285Z,16.21
2016-03-20T10:58:24.287Z,15.83
2016-03-20T10:59:24.290Z,15.92
2016-03-20T11:00:24.293Z,15.83
2016-03-20T11:01:24.312Z,15.73
2016-03-20T11:02:24.314Z,15.92
2016-03-20T11:03:24.317Z,16.5
2016-03-20T11:04:24.320Z,16.41
2016-03-20T11:05:24.322Z,15.92
2016-03-20T11:06:24.325Z,15.73
2016-03-20T11:07:24.342Z,15.92
2016-03-20T11:08:24.345Z,15.92
2016-03-20T11:09:24.365Z,15.92
2016-03-20T11:10:24.367Z,16.41
2016-03-20T11:11:24.369Z,15.73
2016-03-20T11:12:24.372Z,15.83
2016-03-20T11:13:24.375Z,15.91
2016-03-20T11:14:24.377Z,16.01
2016-03-20T11:15:24.395Z,15.92
2016-03-20T11:16:24.242Z,15.73
2016-03-20T11:17:24.401Z,15.91
2016-03-20T11:18:24.403Z,15.73
2016-03-20T11:19:24.422Z,15.92
2016-03-20T11:20:24.425Z,15.92
2016-03-20T11:21:24.427Z,15.73
2016-03-20T11:22:24.430Z,15.83
2016-03-20T11:23:24.449Z,16.6
2016-03-20T11:24:24.451Z,15.83
2016-03-20T11:25:24.455Z,16.11
2016-03-20T11:26:24.457Z,15.92
2016-03-20T11:27:24.475Z,16.39
2016-03-20T11:28:24.477Z,16.39
2016-03-20T11:29:24.480Z,16.2
2016-03-20T11:30:24.483Z,16.3
2016-03-20T11:31:24.501Z,16.3
2016-03-20T11:32:24.504Z,16.49
2016-03-20T11:33:24.507Z,16.49
2016-03-20T11:34:24.510Z,16.49
2016-03-20T11:35:24.528Z,16.59
2016-03-20T11:36:24.530Z,16.59
2016-03-20T11:37:24.534Z,16.69
2016-03-20T11:38:24.551Z,16.59
2016-03-20T11:39:24.538Z,16.69
2016-03-20T11:40:24.556Z,16.69
2016-03-20T11:41:24.622Z,16.59
2016-03-20T11:42:24.578Z,16.69
2016-03-20T11:43:24.565Z,16.59
2016-03-20T11:44:24.584Z,16.78
2016-03-20T11:45:24.586Z,16.39
2016-03-20T11:46:24.603Z,16.69
2016-03-20T11:47:24.591Z,16.59
2016-03-20T11:48:24.594Z,16.78
2016-03-20T11:49:24.644Z,16.39
2016-03-20T11:50:24.614Z,16.49
2016-03-20T11:51:24.617Z,16.69
2016-03-20T11:52:24.636Z,16.49
2016-03-20T11:53:24.638Z,16.59
2016-03-20T11:54:24.657Z,16.78
2016-03-20T11:55:24.643Z,16.59
2016-03-20T11:56:24.646Z,17.16
2016-03-20T11:57:24.665Z,16.87
2016-03-20T11:58:24.668Z,17.16
2016-03-20T11:59:24.671Z,16.87
2016-03-20T12:00:24.689Z,17.07
2016-03-20T12:01:24.707Z,16.67
2016-03-20T12:02:24.694Z,16.58
2016-03-20T12:03:24.697Z,16.87
2016-03-20T12:04:24.699Z,16.87
2016-03-20T12:05:24.701Z,16.87
2016-03-20T12:06:24.704Z,16.67
2016-03-20T12:07:24.723Z,17.16
2016-03-20T12:08:24.725Z,16.87
2016-03-20T12:09:24.745Z,17.25
2016-03-20T12:10:24.778Z,16.87
2016-03-20T12:11:24.750Z,17.07
2016-03-20T12:12:24.768Z,17.07
2016-03-20T12:13:24.756Z,16.97
2016-03-20T12:14:24.758Z,17.16
2016-03-20T12:15:24.775Z,17.16
2016-03-20T12:16:24.794Z,17.07
2016-03-20T12:17:24.781Z,17.16
2016-03-20T12:18:24.783Z,16.97
2016-03-20T12:19:24.786Z,17.07
2016-03-20T12:20:24.820Z,17.07
2016-03-20T12:21:24.808Z,17.16
2016-03-20T12:22:24.810Z,17.16
2016-03-20T12:23:24.813Z,16.97
2016-03-20T12:24:24.816Z,16.97
2016-03-20T12:25:24.833Z,16.87
2016-03-20T12:26:24.837Z,17.07
2016-03-20T12:27:24.839Z,17.16
2016-03-20T12:28:24.841Z,17.16
2016-03-20T12:29:24.861Z,17.16
2016-03-20T12:30:24.863Z,16.97
2016-03-20T12:31:24.865Z,17.07
2016-03-20T12:32:24.869Z,17.07
2016-03-20T12:33:24.871Z,17.16
2016-03-20T12:34:24.890Z,17.07
2016-03-20T12:35:24.893Z,17.16
2016-03-20T12:36:24.879Z,17.16
2016-03-20T12:37:24.913Z,16.97
2016-03-20T12:38:24.916Z,17.25
2016-03-20T12:39:24.903Z,17.07
2016-03-20T12:40:24.921Z,17.07
2016-03-20T12:41:24.924Z,17.16
2016-03-20T12:42:24.943Z,17.07
2016-03-20T12:43:24.945Z,17.16
2016-03-20T12:44:24.947Z,16.97
2016-03-20T12:45:24.950Z,17.25
2016-03-20T12:46:24.953Z,17.07
2016-03-20T12:47:24.956Z,16.97
2016-03-20T12:48:24.975Z,17.07
2016-03-20T12:49:24.977Z,16.97
2016-03-20T12:50:24.995Z,17.07
2016-03-20T12:51:24.983Z,17.07
2016-03-20T12:52:25.000Z,16.87
2016-03-20T12:53:25.003Z,17.07